Time;durP1;ratioP1;P1;durP2;ratioP2;P2;SDS_P1;SDS_P2;PMS_P1;PMS_P2;Temp;Humidity;BMP_temperature;BMP_pressure;BME280_temperature;BME280_humidity;BME280_pressure;Samples;Min_cycle;Max_cycle;Signal;HPM_P1;HPM_P2
2023/07/10 00:02:23;;;;;;;6.97;6.38;;;;;;;;;;5057279;28;20283;-78
2023/07/10 00:04:51;;;;;;;6.80;6.05;;;;;;;;;;5021778;28;20220;-79
2023/07/10 00:07:20;;;;;;;6.80;6.30;;;;;;;;;;5027128;28;20228;-78
2023/07/10 00:09:45;;;;;;;7.07;6.47;;;;;;;;;;5029476;28;20746;-78
2023/07/10 00:12:13;;;;;;;6.70;6.05;;;;;;;;;;4993148;28;20228;-77
2023/07/10 00:14:39;;;;;;;7.20;6.50;;;;;;;;;;5034684;28;20301;-79
2023/07/10 00:17:09;;;;;;;6.05;5.55;;;;;;;;;;4996241;28;20242;-79
2023/07/10 00:19:37;;;;;;;6.53;6.00;;;;;;;;;;5001279;28;20248;-79
2023/07/10 00:22:03;;;;;;;6.07;5.57;;;;;;;;;;5042412;28;20223;-78
2023/07/10 00:24:28;;;;;;;6.35;5.85;;;;;;;;;;5028961;28;20234;-79
2023/07/10 00:26:54;;;;;;;7.13;6.47;;;;;;;;;;5035895;28;20455;-79
2023/07/10 00:29:25;;;;;;;7.15;6.47;;;;;;;;;;5043803;28;20282;-79
2023/07/10 00:31:51;;;;;;;7.32;6.70;;;;;;;;;;5025202;28;20828;-79
2023/07/10 00:34:25;;;;;;;7.13;6.53;;;;;;;;;;5034258;28;20211;-78
2023/07/10 00:36:50;;;;;;;6.80;6.20;;;;;;;;;;5029451;28;20227;-79
2023/07/10 00:39:21;;;;;;;7.07;6.47;;;;;;;;;;5007911;28;20224;-79
2023/07/10 00:42:23;;;;;;;7.50;6.70;;;;;;;;;;5029333;28;20219;-79
2023/07/10 00:44:53;;;;;;;7.50;6.80;;;;;;;;;;5006117;28;20218;-79
2023/07/10 00:47:24;;;;;;;7.15;6.50;;;;;;;;;;4982739;28;20270;-79
2023/07/10 00:50:03;;;;;;;7.35;6.75;;;;;;;;;;5044872;28;20547;-78
2023/07/10 00:52:33;;;;;;;7.55;6.95;;;;;;;;;;5046221;28;20241;-79
2023/07/10 00:55:05;;;;;;;7.78;6.95;;;;;;;;;;5018886;28;20243;-79
2023/07/10 00:57:34;;;;;;;7.25;6.55;;;;;;;;;;5020167;28;20240;-78
2023/07/10 01:00:00;;;;;;;7.35;6.75;;;;;;;;;;5035284;28;20259;-78
2023/07/10 01:02:26;;;;;;;7.22;6.60;;;;;;;;;;5032912;28;20254;-77
2023/07/10 01:05:04;;;;;;;8.07;7.28;;;;;;;;;;5002503;28;20216;-77
2023/07/10 01:07:35;;;;;;;7.53;6.80;;;;;;;;;;5053361;28;20226;-76
2023/07/10 01:10:04;;;;;;;8.57;7.20;;;;;;;;;;5039077;28;20219;-77
2023/07/10 01:12:32;;;;;;;7.50;6.90;;;;;;;;;;5025592;28;20228;-78
2023/07/10 01:15:03;;;;;;;7.32;6.80;;;;;;;;;;5036100;28;20464;-77
2023/07/10 01:17:30;;;;;;;7.85;7.15;;;;;;;;;;5009420;28;20223;-78
2023/07/10 01:20:21;;;;;;;8.90;7.43;;;;;;;;;;5036719;28;20220;-77
2023/07/10 01:22:49;;;;;;;7.32;6.72;;;;;;;;;;5019625;28;20216;-77
2023/07/10 01:25:14;;;;;;;8.20;7.15;;;;;;;;;;5014301;28;20216;-78
2023/07/10 01:27:40;;;;;;;8.15;7.35;;;;;;;;;;5020766;28;20714;-78
2023/07/10 01:30:30;;;;;;;7.60;6.93;;;;;;;;;;5003484;28;20211;-79
2023/07/10 01:32:56;;;;;;;7.13;6.43;;;;;;;;;;5017467;28;20227;-79
2023/07/10 01:35:24;;;;;;;7.85;7.22;;;;;;;;;;5018887;28;20234;-78
2023/07/10 01:37:49;;;;;;;7.60;7.03;;;;;;;;;;5016863;28;20313;-79
2023/07/10 01:40:17;;;;;;;7.70;7.03;;;;;;;;;;4991532;28;20211;-78
2023/07/10 01:42:43;;;;;;;8.73;7.80;;;;;;;;;;5031243;28;20223;-79
2023/07/10 01:45:14;;;;;;;8.90;8.18;;;;;;;;;;5044402;28;20239;-79
2023/07/10 01:47:40;;;;;;;8.85;8.05;;;;;;;;;;5007100;28;20220;-78
2023/07/10 01:50:06;;;;;;;8.95;8.07;;;;;;;;;;4994630;28;20228;-79
2023/07/10 01:52:33;;;;;;;8.63;7.82;;;;;;;;;;5023996;28;20231;-80
2023/07/10 01:54:59;;;;;;;7.82;7.22;;;;;;;;;;5033120;28;20302;-79
2023/07/10 01:57:27;;;;;;;9.05;8.07;;;;;;;;;;5013183;28;20216;-78
2023/07/10 01:59:55;;;;;;;12.63;9.20;;;;;;;;;;5014374;28;20223;-79
2023/07/10 02:02:21;;;;;;;24.55;10.13;;;;;;;;;;5013709;28;20247;-77
2023/07/10 02:04:49;;;;;;;12.93;10.48;;;;;;;;;;5018037;28;20223;-78
2023/07/10 02:07:14;;;;;;;9.82;8.80;;;;;;;;;;5031625;28;20223;-76
2023/07/10 02:09:40;;;;;;;10.65;9.65;;;;;;;;;;5003783;28;20238;-78
2023/07/10 02:12:06;;;;;;;10.15;9.25;;;;;;;;;;5011783;28;20235;-77
2023/07/10 02:14:32;;;;;;;11.65;10.65;;;;;;;;;;5010440;28;20223;-78
2023/07/10 02:16:57;;;;;;;12.15;11.15;;;;;;;;;;5009387;28;20224;-79
2023/07/10 02:19:23;;;;;;;12.30;11.20;;;;;;;;;;4998319;28;20242;-77
2023/07/10 02:21:48;;;;;;;11.77;10.63;;;;;;;;;;5041478;28;20227;-76
2023/07/10 02:24:14;;;;;;;12.73;11.65;;;;;;;;;;5023920;28;20224;-78
2023/07/10 02:26:39;;;;;;;12.05;11.15;;;;;;;;;;5016535;28;20612;-78
2023/07/10 02:29:07;;;;;;;12.07;11.05;;;;;;;;;;5048148;28;20747;-76
2023/07/10 02:31:36;;;;;;;13.77;12.35;;;;;;;;;;5014494;28;20231;-77
2023/07/10 02:34:01;;;;;;;14.15;12.85;;;;;;;;;;5029948;28;20219;-77
2023/07/10 02:36:30;;;;;;;14.75;13.45;;;;;;;;;;5013664;28;20227;-78
2023/07/10 02:38:58;;;;;;;14.00;12.88;;;;;;;;;;5027807;28;20223;-78
2023/07/10 02:41:23;;;;;;;14.27;13.00;;;;;;;;;;4991214;28;21008;-78
2023/07/10 02:43:49;;;;;;;15.50;14.23;;;;;;;;;;5010113;28;20219;-79
2023/07/10 02:46:17;;;;;;;15.63;14.25;;;;;;;;;;5022522;28;20231;-79
2023/07/10 02:48:48;;;;;;;15.82;14.48;;;;;;;;;;5031566;28;20227;-80
2023/07/10 02:51:19;;;;;;;16.73;15.05;;;;;;;;;;5017217;28;20231;-78
2023/07/10 02:53:47;;;;;;;15.40;14.20;;;;;;;;;;5011897;28;20223;-78
2023/07/10 02:56:12;;;;;;;15.55;14.27;;;;;;;;;;5012729;28;20292;-78
2023/07/10 02:58:38;;;;;;;16.35;14.95;;;;;;;;;;5022167;28;20223;-77
2023/07/10 03:01:04;;;;;;;16.55;15.05;;;;;;;;;;5021366;28;20225;-77
2023/07/10 03:03:29;;;;;;;17.10;15.70;;;;;;;;;;5014223;28;20222;-79
2023/07/10 03:05:56;;;;;;;17.30;15.82;;;;;;;;;;5024496;28;20597;-78
2023/07/10 03:08:22;;;;;;;16.17;14.85;;;;;;;;;;5014482;28;20227;-77
2023/07/10 03:11:02;;;;;;;17.42;15.82;;;;;;;;;;5027617;28;20221;-78
2023/07/10 03:13:29;;;;;;;17.88;16.35;;;;;;;;;;5016718;28;20607;-78
2023/07/10 03:16:02;;;;;;;17.30;15.95;;;;;;;;;;5006055;28;20216;-76
2023/07/10 03:18:28;;;;;;;17.13;15.65;;;;;;;;;;5026143;28;20322;-78
2023/07/10 03:20:54;;;;;;;17.48;15.95;;;;;;;;;;5023702;28;21022;-78
2023/07/10 03:23:19;;;;;;;16.92;15.45;;;;;;;;;;5028615;28;20219;-78
2023/07/10 03:25:45;;;;;;;19.48;17.67;;;;;;;;;;5024237;28;20253;-78
2023/07/10 03:28:10;;;;;;;20.33;18.25;;;;;;;;;;5012818;28;20960;-78
2023/07/10 03:30:40;;;;;;;19.27;17.48;;;;;;;;;;5037001;28;20237;-78
2023/07/10 03:33:10;;;;;;;20.63;18.83;;;;;;;;;;5008216;28;20238;-78
2023/07/10 03:35:36;;;;;;;21.40;19.20;;;;;;;;;;5014683;28;20229;-79
2023/07/10 03:38:01;;;;;;;20.92;19.23;;;;;;;;;;5012984;28;20211;-77
2023/07/10 03:40:27;;;;;;;23.70;21.50;;;;;;;;;;5041822;28;20254;-78
2023/07/10 03:42:55;;;;;;;23.50;21.42;;;;;;;;;;5030184;28;20710;-78
2023/07/10 03:45:20;;;;;;;22.45;20.42;;;;;;;;;;5015440;28;20315;-77
2023/07/10 03:47:46;;;;;;;24.83;22.48;;;;;;;;;;5016890;28;20222;-77
2023/07/10 03:50:14;;;;;;;24.38;22.15;;;;;;;;;;5041854;28;20227;-78
2023/07/10 03:52:40;;;;;;;26.40;23.80;;;;;;;;;;5030695;28;20234;-78
2023/07/10 03:55:06;;;;;;;26.33;24.05;;;;;;;;;;5014094;28;20224;-78
2023/07/10 03:57:31;;;;;;;26.08;23.63;;;;;;;;;;5017418;28;20354;-78
2023/07/10 03:59:59;;;;;;;26.08;23.88;;;;;;;;;;5018164;28;20695;-79
2023/07/10 04:06:17;;;;;;;24.30;21.98;;;;;;;;;;5044852;28;22541;-77
2023/07/10 04:08:45;;;;;;;23.95;21.90;;;;;;;;;;5028654;28;20224;-80
2023/07/10 04:11:23;;;;;;;27.88;25.25;;;;;;;;;;5027870;28;20209;-79
2023/07/10 04:13:51;;;;;;;26.52;24.23;;;;;;;;;;5032770;28;20227;-78
2023/07/10 04:16:21;;;;;;;26.95;24.67;;;;;;;;;;5031100;28;20277;-80
2023/07/10 04:18:50;;;;;;;29.33;26.63;;;;;;;;;;5012978;28;20331;-77
2023/07/10 04:21:30;;;;;;;26.05;23.80;;;;;;;;;;5014421;28;20211;-77
2023/07/10 04:23:55;;;;;;;26.23;23.88;;;;;;;;;;5006401;28;21030;-78
2023/07/10 04:26:24;;;;;;;25.75;23.50;;;;;;;;;;5029648;28;20220;-77
2023/07/10 04:28:53;;;;;;;27.98;25.65;;;;;;;;;;5026426;28;20220;-77
2023/07/10 04:31:22;;;;;;;27.45;25.05;;;;;;;;;;5029840;28;20227;-77
2023/07/10 04:33:50;;;;;;;24.80;22.60;;;;;;;;;;5031254;28;20220;-79
2023/07/10 04:36:16;;;;;;;25.08;23.08;;;;;;;;;;4996764;28;20212;-78
2023/07/10 04:38:42;;;;;;;24.48;22.50;;;;;;;;;;5004843;28;20231;-77
2023/07/10 04:41:09;;;;;;;25.13;23.10;;;;;;;;;;5022751;28;20216;-78
2023/07/10 04:43:37;;;;;;;25.08;22.90;;;;;;;;;;5029065;28;20249;-77
2023/07/10 04:46:04;;;;;;;25.67;23.38;;;;;;;;;;5020557;28;20295;-77
2023/07/10 04:48:34;;;;;;;25.38;23.35;;;;;;;;;;5015335;28;20230;-79
2023/07/10 04:51:03;;;;;;;24.95;22.88;;;;;;;;;;5030077;28;20219;-77
2023/07/10 04:53:33;;;;;;;27.05;24.73;;;;;;;;;;5012955;28;20219;-79
2023/07/10 04:56:02;;;;;;;23.50;21.48;;;;;;;;;;5028622;28;20215;-78
2023/07/10 04:58:30;;;;;;;24.33;22.23;;;;;;;;;;5016160;28;20223;-77
2023/07/10 05:00:58;;;;;;;25.05;23.05;;;;;;;;;;5011325;28;20228;-78
2023/07/10 05:03:26;;;;;;;26.10;23.90;;;;;;;;;;5016114;28;20695;-78
2023/07/10 05:05:53;;;;;;;23.85;21.95;;;;;;;;;;5014640;28;20273;-78
2023/07/10 05:08:21;;;;;;;24.75;22.65;;;;;;;;;;5029771;28;20324;-77
2023/07/10 05:10:50;;;;;;;29.38;26.83;;;;;;;;;;5024980;28;20250;-78
2023/07/10 05:13:18;;;;;;;30.33;27.67;;;;;;;;;;4996602;28;20220;-77
2023/07/10 05:15:45;;;;;;;31.33;28.42;;;;;;;;;;4998788;28;20230;-78
2023/07/10 05:18:13;;;;;;;30.45;27.80;;;;;;;;;;4991466;28;20765;-79
2023/07/10 05:20:42;;;;;;;28.92;26.38;;;;;;;;;;5040064;28;20458;-77
2023/07/10 05:23:08;;;;;;;29.83;27.13;;;;;;;;;;5026526;28;20224;-78
2023/07/10 05:25:36;;;;;;;27.48;25.08;;;;;;;;;;5037978;28;20227;-77
2023/07/10 05:28:01;;;;;;;28.83;26.27;;;;;;;;;;5015405;28;20692;-78
2023/07/10 05:30:28;;;;;;;29.05;26.08;;;;;;;;;;5043671;28;20224;-77
2023/07/10 05:32:53;;;;;;;29.42;26.40;;;;;;;;;;5033680;28;20625;-75
2023/07/10 05:35:21;;;;;;;30.48;27.77;;;;;;;;;;4987824;28;20212;-77
2023/07/10 05:37:50;;;;;;;30.05;27.27;;;;;;;;;;5040796;28;20276;-77
2023/07/10 05:40:18;;;;;;;31.13;28.42;;;;;;;;;;5011051;28;20305;-77
2023/07/10 05:42:43;;;;;;;31.85;29.10;;;;;;;;;;5025265;28;20231;-77
2023/07/10 05:45:09;;;;;;;33.47;30.27;;;;;;;;;;5025837;28;20235;-77
2023/07/10 05:47:37;;;;;;;32.72;29.50;;;;;;;;;;5030063;28;20227;-78
2023/07/10 05:50:03;;;;;;;34.45;31.02;;;;;;;;;;5040319;28;20219;-79
2023/07/10 05:52:30;;;;;;;33.58;30.17;;;;;;;;;;5028991;28;20259;-78
2023/07/10 05:54:56;;;;;;;33.85;30.55;;;;;;;;;;5025212;28;20235;-78
2023/07/10 05:57:22;;;;;;;40.05;30.75;;;;;;;;;;5024358;28;20223;-77
2023/07/10 05:59:50;;;;;;;40.58;32.25;;;;;;;;;;5026809;28;20276;-77
2023/07/10 06:02:20;;;;;;;47.35;33.17;;;;;;;;;;5003858;28;20730;-77
2023/07/10 06:04:46;;;;;;;47.90;33.67;;;;;;;;;;5028107;28;20222;-76
2023/07/10 06:07:11;;;;;;;54.10;35.33;;;;;;;;;;5030563;28;20227;-79
2023/07/10 06:09:42;;;;;;;48.97;34.13;;;;;;;;;;5030006;28;20223;-78
2023/07/10 06:12:10;;;;;;;47.45;34.47;;;;;;;;;;5028872;28;20235;-76
2023/07/10 06:14:38;;;;;;;46.70;35.65;;;;;;;;;;5025749;28;20223;-76
2023/07/10 06:17:03;;;;;;;53.90;36.70;;;;;;;;;;5028598;28;20932;-76
2023/07/10 06:19:29;;;;;;;52.67;36.67;;;;;;;;;;5039468;28;20223;-77
2023/07/10 06:22:11;;;;;;;49.70;35.03;;;;;;;;;;5020743;28;20289;-77
2023/07/10 06:24:36;;;;;;;50.80;34.63;;;;;;;;;;5007885;28;20223;-77
2023/07/10 06:27:07;;;;;;;41.67;31.60;;;;;;;;;;5013322;28;20281;-78
2023/07/10 06:29:35;;;;;;;35.17;27.83;;;;;;;;;;5026946;28;20243;-76
2023/07/10 06:32:05;;;;;;;35.17;25.40;;;;;;;;;;5025459;28;20298;-77
2023/07/10 06:34:31;;;;;;;29.50;24.63;;;;;;;;;;5027996;28;20231;-76
2023/07/10 06:37:01;;;;;;;33.42;24.60;;;;;;;;;;5016258;28;20220;-77
2023/07/10 06:39:27;;;;;;;32.00;24.60;;;;;;;;;;5012481;28;20275;-77
2023/07/10 06:41:53;;;;;;;29.60;24.15;;;;;;;;;;5048713;28;20215;-77
2023/07/10 06:44:21;;;;;;;30.58;24.25;;;;;;;;;;5021823;28;20223;-77
2023/07/10 06:46:47;;;;;;;30.52;25.02;;;;;;;;;;5030431;28;20227;-77
2023/07/10 06:49:15;;;;;;;34.92;25.27;;;;;;;;;;5033748;28;20254;-78
2023/07/10 06:51:42;;;;;;;31.25;25.10;;;;;;;;;;5002348;28;20242;-77
2023/07/10 06:54:09;;;;;;;29.05;24.65;;;;;;;;;;5015724;28;20227;-78
2023/07/10 06:56:35;;;;;;;29.90;24.73;;;;;;;;;;4990967;28;20223;-76
2023/07/10 06:59:03;;;;;;;27.55;23.70;;;;;;;;;;5022200;28;20223;-77
2023/07/10 07:01:33;;;;;;;26.23;21.83;;;;;;;;;;4999921;28;20224;-77
2023/07/10 07:03:59;;;;;;;25.42;21.05;;;;;;;;;;5017640;28;20224;-78
2023/07/10 07:06:24;;;;;;;23.98;21.48;;;;;;;;;;5004929;28;20229;-78
2023/07/10 07:08:51;;;;;;;23.40;20.92;;;;;;;;;;5023421;28;20224;-77
2023/07/10 07:11:16;;;;;;;26.60;22.42;;;;;;;;;;4996008;28;20326;-77
2023/07/10 07:13:44;;;;;;;23.80;20.42;;;;;;;;;;5040718;28;20306;-77
2023/07/10 07:16:10;;;;;;;22.50;18.95;;;;;;;;;;5029223;28;20220;-77
2023/07/10 07:18:36;;;;;;;19.83;17.73;;;;;;;;;;5042503;28;20325;-77
2023/07/10 07:21:01;;;;;;;17.55;15.80;;;;;;;;;;5022146;28;20219;-76
2023/07/10 07:23:27;;;;;;;17.75;15.82;;;;;;;;;;5018737;28;20215;-78
2023/07/10 07:25:56;;;;;;;17.35;14.27;;;;;;;;;;5022629;28;20812;-77
2023/07/10 07:28:23;;;;;;;16.80;15.00;;;;;;;;;;5029081;28;20227;-76
2023/07/10 07:30:51;;;;;;;15.98;14.20;;;;;;;;;;5042067;28;20215;-76
2023/07/10 07:33:18;;;;;;;14.60;13.10;;;;;;;;;;5039189;28;20265;-78
2023/07/10 07:35:43;;;;;;;14.65;13.13;;;;;;;;;;5023780;28;20598;-78
2023/07/10 07:38:11;;;;;;;14.00;12.65;;;;;;;;;;5033811;28;20231;-76
2023/07/10 07:40:39;;;;;;;14.40;11.98;;;;;;;;;;4992723;28;20219;-76
2023/07/10 07:43:05;;;;;;;12.13;11.02;;;;;;;;;;4992460;28;20703;-77
2023/07/10 07:45:30;;;;;;;13.77;11.55;;;;;;;;;;5017435;28;20228;-77
2023/07/10 07:47:58;;;;;;;12.00;10.80;;;;;;;;;;5022913;28;20234;-77
2023/07/10 07:50:23;;;;;;;11.48;10.38;;;;;;;;;;5032402;28;20215;-77
2023/07/10 07:52:49;;;;;;;10.07;9.05;;;;;;;;;;5025522;28;20247;-77
2023/07/10 07:55:20;;;;;;;12.50;9.73;;;;;;;;;;4990704;28;20242;-78
2023/07/10 07:57:47;;;;;;;11.32;9.65;;;;;;;;;;5043103;28;20235;-77
2023/07/10 08:00:13;;;;;;;10.50;8.70;;;;;;;;;;5026191;28;20273;-77
2023/07/10 08:02:41;;;;;;;10.55;9.00;;;;;;;;;;5016783;28;20255;-76
2023/07/10 08:05:07;;;;;;;9.40;8.55;;;;;;;;;;5024269;28;20304;-77
2023/07/10 08:07:37;;;;;;;10.07;9.18;;;;;;;;;;5008773;28;20227;-76
2023/07/10 08:10:05;;;;;;;9.35;8.52;;;;;;;;;;5012205;28;20507;-77
2023/07/10 08:12:33;;;;;;;8.50;7.78;;;;;;;;;;5033351;28;20223;-76
2023/07/10 08:14:59;;;;;;;9.73;7.88;;;;;;;;;;5003871;28;20231;-77
2023/07/10 08:17:24;;;;;;;8.30;7.50;;;;;;;;;;5024676;28;20231;-78
2023/07/10 08:19:50;;;;;;;7.68;6.95;;;;;;;;;;5033645;28;20227;-77
2023/07/10 08:22:16;;;;;;;6.80;6.20;;;;;;;;;;5024017;28;20212;-78
2023/07/10 08:24:48;;;;;;;6.78;5.75;;;;;;;;;;5020398;28;20227;-77
2023/07/10 08:27:13;;;;;;;8.13;6.60;;;;;;;;;;5016164;28;20235;-78
2023/07/10 08:29:40;;;;;;;7.25;6.55;;;;;;;;;;5046127;28;20215;-79
2023/07/10 08:32:06;;;;;;;7.22;6.60;;;;;;;;;;5024849;28;20215;-79
2023/07/10 08:34:32;;;;;;;9.63;6.97;;;;;;;;;;5001476;28;20327;-81
2023/07/10 08:36:59;;;;;;;7.15;6.53;;;;;;;;;;5032884;28;20574;-78
2023/07/10 08:39:29;;;;;;;8.43;7.10;;;;;;;;;;4991750;28;20223;-78
2023/07/10 08:41:57;;;;;;;7.40;6.80;;;;;;;;;;5015396;28;20773;-78
2023/07/10 08:44:35;;;;;;;9.35;8.35;;;;;;;;;;4973198;28;20214;-79
2023/07/10 08:47:03;;;;;;;8.77;7.97;;;;;;;;;;5041912;28;20235;-79
2023/07/10 08:49:37;;;;;;;9.95;8.95;;;;;;;;;;5017193;28;20227;-79
2023/07/10 08:52:07;;;;;;;10.32;8.80;;;;;;;;;;5018210;28;20884;-79
2023/07/10 08:54:32;;;;;;;14.25;9.40;;;;;;;;;;5030421;28;20231;-79
2023/07/10 08:57:06;;;;;;;11.38;8.85;;;;;;;;;;5000771;28;20245;-78
2023/07/10 08:59:35;;;;;;;11.85;8.98;;;;;;;;;;5020597;28;20230;-78
2023/07/10 09:02:00;;;;;;;10.05;8.68;;;;;;;;;;5023180;28;20232;-79
2023/07/10 09:04:26;;;;;;;10.05;8.68;;;;;;;;;;5048486;28;20227;-77
2023/07/10 09:06:56;;;;;;;9.73;8.25;;;;;;;;;;4994743;28;20219;-76
2023/07/10 09:09:28;;;;;;;8.85;7.95;;;;;;;;;;5014769;28;20767;-79
2023/07/10 09:11:54;;;;;;;8.40;7.00;;;;;;;;;;5032219;28;20235;-79
2023/07/10 09:14:20;;;;;;;6.35;5.75;;;;;;;;;;5029057;28;20218;-79
2023/07/10 09:16:46;;;;;;;6.90;5.88;;;;;;;;;;5043517;28;20692;-77
2023/07/10 09:19:14;;;;;;;7.57;5.22;;;;;;;;;;5015282;28;20296;-79
2023/07/10 09:21:40;;;;;;;5.75;5.10;;;;;;;;;;5010285;28;20242;-77
2023/07/10 09:24:08;;;;;;;6.70;4.60;;;;;;;;;;5016717;28;20211;-78
2023/07/10 09:26:38;;;;;;;4.65;4.20;;;;;;;;;;5032614;28;20215;-77
2023/07/10 09:29:10;;;;;;;5.82;4.35;;;;;;;;;;5008379;28;20220;-80
2023/07/10 09:32:13;;;;;;;6.43;4.20;;;;;;;;;;5012644;28;20285;-80
2023/07/10 09:34:53;;;;;;;5.72;4.15;;;;;;;;;;5029184;28;20231;-78
2023/07/10 09:37:26;;;;;;;5.85;4.20;;;;;;;;;;5037112;28;20227;-77
2023/07/10 09:39:54;;;;;;;7.10;4.03;;;;;;;;;;5007429;28;20657;-77
2023/07/10 09:42:30;;;;;;;4.82;4.30;;;;;;;;;;5014732;28;20211;-77
2023/07/10 09:44:59;;;;;;;4.13;3.65;;;;;;;;;;5027837;28;20219;-78
2023/07/10 09:47:25;;;;;;;5.97;3.78;;;;;;;;;;4992464;28;20242;-77
2023/07/10 09:49:55;;;;;;;4.70;3.38;;;;;;;;;;5014637;28;20215;-77
2023/07/10 09:52:31;;;;;;;5.40;3.30;;;;;;;;;;5036230;28;20228;-79
2023/07/10 09:55:02;;;;;;;3.95;3.50;;;;;;;;;;5021189;28;20242;-79
2023/07/10 09:57:28;;;;;;;3.78;3.30;;;;;;;;;;4997956;28;20314;-78
2023/07/10 09:59:55;;;;;;;4.97;3.13;;;;;;;;;;4999706;28;20326;-79
2023/07/10 10:02:24;;;;;;;4.68;2.95;;;;;;;;;;5015382;28;20314;-77
2023/07/10 10:05:10;;;;;;;4.88;2.85;;;;;;;;;;5025422;28;20234;-78
2023/07/10 10:07:37;;;;;;;4.22;2.80;;;;;;;;;;5017760;28;20230;-78
2023/07/10 10:10:22;;;;;;;3.13;2.65;;;;;;;;;;5015072;28;20226;-80
2023/07/10 10:12:52;;;;;;;3.05;2.78;;;;;;;;;;4996971;28;20232;-79
2023/07/10 10:16:03;;;;;;;3.25;2.70;;;;;;;;;;5000146;28;20235;-78
2023/07/10 10:18:34;;;;;;;5.32;3.08;;;;;;;;;;4979470;28;20229;-79
2023/07/10 10:21:00;;;;;;;4.32;3.00;;;;;;;;;;5023291;28;20228;-78
2023/07/10 10:23:30;;;;;;;5.15;2.90;;;;;;;;;;5015210;28;20227;-78
2023/07/10 10:26:18;;;;;;;4.05;2.90;;;;;;;;;;5031539;28;20223;-78
2023/07/10 10:28:52;;;;;;;3.03;2.72;;;;;;;;;;5029585;28;20370;-78
2023/07/10 10:31:22;;;;;;;5.47;2.70;;;;;;;;;;5040888;28;20220;-80
2023/07/10 10:34:07;;;;;;;2.50;2.30;;;;;;;;;;5006983;28;20228;-79
2023/07/10 10:36:37;;;;;;;2.60;2.40;;;;;;;;;;4994429;28;20227;-77
2023/07/10 10:39:34;;;;;;;6.53;2.50;;;;;;;;;;5041007;28;20227;-79
2023/07/10 10:42:00;;;;;;;4.75;2.63;;;;;;;;;;5028948;28;20215;-77
2023/07/10 10:44:39;;;;;;;3.17;2.50;;;;;;;;;;5003408;28;20922;-79
2023/07/10 10:47:10;;;;;;;4.20;2.40;;;;;;;;;;5025138;28;20565;-77
2023/07/10 10:49:45;;;;;;;3.83;2.47;;;;;;;;;;5014667;28;20286;-81
2023/07/10 10:52:31;;;;;;;3.22;2.45;;;;;;;;;;5025791;28;20233;-79
2023/07/10 10:55:12;;;;;;;4.03;2.10;;;;;;;;;;5041542;28;20247;-79
2023/07/10 10:57:55;;;;;;;5.85;2.25;;;;;;;;;;5038340;28;20315;-79
2023/07/10 11:00:45;;;;;;;4.70;2.90;;;;;;;;;;5023656;28;20227;-79
2023/07/10 11:03:23;;;;;;;3.70;2.67;;;;;;;;;;5040507;28;20223;-78
2023/07/10 11:05:50;;;;;;;2.45;2.05;;;;;;;;;;5011870;28;20641;-80
2023/07/10 11:08:21;;;;;;;3.35;2.25;;;;;;;;;;4998843;28;20232;-77
2023/07/10 11:10:47;;;;;;;2.05;1.85;;;;;;;;;;5044623;28;20228;-77
2023/07/10 11:13:21;;;;;;;3.78;2.28;;;;;;;;;;5013409;28;20237;-79
2023/07/10 11:15:49;;;;;;;2.53;1.90;;;;;;;;;;5029195;28;20278;-80
2023/07/10 11:18:17;;;;;;;2.20;2.00;;;;;;;;;;5029252;28;20219;-81
2023/07/10 11:20:43;;;;;;;2.20;1.95;;;;;;;;;;5024837;28;20224;-79
2023/07/10 11:23:28;;;;;;;2.10;1.90;;;;;;;;;;5023432;28;20235;-80
2023/07/10 11:26:20;;;;;;;3.35;2.22;;;;;;;;;;5026052;28;20277;-79
2023/07/10 11:29:01;;;;;;;2.67;1.90;;;;;;;;;;5032575;28;20281;-81
2023/07/10 11:31:30;;;;;;;3.58;2.40;;;;;;;;;;5015923;28;20594;-78
2023/07/10 11:34:07;;;;;;;2.45;1.90;;;;;;;;;;5043202;28;20266;-78
2023/07/10 11:36:37;;;;;;;3.55;2.00;;;;;;;;;;5031545;28;20763;-78
2023/07/10 11:39:06;;;;;;;4.13;2.33;;;;;;;;;;4990130;28;20223;-79
2023/07/10 11:41:32;;;;;;;2.47;2.28;;;;;;;;;;5014763;28;20229;-80
2023/07/10 11:44:29;;;;;;;2.95;2.40;;;;;;;;;;5014544;28;20226;-79
2023/07/10 11:46:59;;;;;;;2.47;2.22;;;;;;;;;;5040033;28;20246;-80
2023/07/10 11:49:45;;;;;;;3.35;1.90;;;;;;;;;;5029681;28;20227;-78
2023/07/10 11:52:13;;;;;;;5.80;2.10;;;;;;;;;;5024493;28;20263;-78
2023/07/10 11:54:41;;;;;;;2.10;1.73;;;;;;;;;;5025140;28;20249;-80
2023/07/10 11:57:14;;;;;;;2.42;2.00;;;;;;;;;;5030701;28;20313;-78
2023/07/10 11:59:54;;;;;;;2.10;1.75;;;;;;;;;;5032787;28;20247;-79
2023/07/10 12:02:39;;;;;;;2.25;2.00;;;;;;;;;;5026177;28;20223;-79
2023/07/10 12:05:21;;;;;;;2.50;1.85;;;;;;;;;;5044116;28;20227;-78
2023/07/10 12:07:58;;;;;;;1.70;1.60;;;;;;;;;;5012592;28;20308;-78
2023/07/10 12:10:25;;;;;;;1.90;1.70;;;;;;;;;;5016869;28;21007;-78
2023/07/10 12:12:53;;;;;;;3.75;2.13;;;;;;;;;;4994156;28;20250;-80
2023/07/10 12:15:19;;;;;;;2.75;2.15;;;;;;;;;;5026473;28;20362;-78
2023/07/10 12:17:46;;;;;;;3.92;2.13;;;;;;;;;;5019380;28;20676;-78
2023/07/10 12:20:45;;;;;;;5.20;2.10;;;;;;;;;;5017983;28;20274;-78
2023/07/10 12:23:12;;;;;;;4.03;2.20;;;;;;;;;;4983590;28;20234;-79
2023/07/10 12:25:37;;;;;;;2.38;2.17;;;;;;;;;;5033049;28;20918;-78
2023/07/10 12:28:10;;;;;;;2.25;2.00;;;;;;;;;;5019512;28;20323;-79
2023/07/10 12:30:38;;;;;;;3.63;1.90;;;;;;;;;;5024838;28;20212;-77
2023/07/10 12:33:04;;;;;;;4.07;1.95;;;;;;;;;;5028465;28;20240;-77
2023/07/10 12:35:30;;;;;;;1.73;1.58;;;;;;;;;;5030774;28;20673;-79
2023/07/10 12:37:58;;;;;;;1.60;1.33;;;;;;;;;;5029528;28;20228;-76
2023/07/10 12:40:30;;;;;;;2.40;1.80;;;;;;;;;;5006033;28;20215;-79
2023/07/10 12:43:08;;;;;;;3.92;1.60;;;;;;;;;;5014324;28;20229;-78
2023/07/10 12:45:34;;;;;;;3.55;1.63;;;;;;;;;;5027084;28;20302;-79
2023/07/10 12:48:10;;;;;;;1.90;1.58;;;;;;;;;;4992837;28;20254;-79
2023/07/10 12:50:51;;;;;;;2.13;1.60;;;;;;;;;;5026414;28;20294;-78
2023/07/10 12:53:21;;;;;;;4.63;1.98;;;;;;;;;;5021423;28;20231;-81
2023/07/10 12:55:54;;;;;;;2.80;1.60;;;;;;;;;;5036265;28;20212;-79
2023/07/10 12:58:19;;;;;;;4.47;1.92;;;;;;;;;;5030270;28;20223;-77
2023/07/10 13:00:54;;;;;;;2.53;1.75;;;;;;;;;;5030195;28;20209;-79
2023/07/10 13:03:24;;;;;;;3.03;1.75;;;;;;;;;;5058929;28;20293;-79
2023/07/10 13:05:51;;;;;;;2.63;1.50;;;;;;;;;;5031372;28;20216;-80
2023/07/10 13:08:19;;;;;;;2.45;1.38;;;;;;;;;;5013239;28;20700;-78
2023/07/10 13:10:45;;;;;;;3.65;1.50;;;;;;;;;;5046412;28;20227;-80
2023/07/10 13:13:18;;;;;;;2.13;1.25;;;;;;;;;;5049903;28;20231;-80
2023/07/10 13:15:46;;;;;;;2.70;1.40;;;;;;;;;;5028766;28;20229;-81
2023/07/10 13:18:23;;;;;;;2.65;1.70;;;;;;;;;;5010841;28;20224;-78
2023/07/10 13:20:48;;;;;;;2.72;1.67;;;;;;;;;;5047673;28;20223;-77
2023/07/10 13:23:14;;;;;;;1.75;1.45;;;;;;;;;;5045611;28;20226;-77
2023/07/10 13:25:39;;;;;;;4.03;1.50;;;;;;;;;;5010145;28;20227;-78
2023/07/10 13:28:27;;;;;;;3.15;1.38;;;;;;;;;;5055237;28;20232;-76
2023/07/10 13:30:53;;;;;;;2.80;1.67;;;;;;;;;;5009093;28;20211;-79
2023/07/10 13:33:23;;;;;;;3.88;1.40;;;;;;;;;;5000988;28;20228;-79
2023/07/10 13:35:54;;;;;;;3.05;1.50;;;;;;;;;;4989788;28;20274;-77
2023/07/10 13:38:20;;;;;;;3.33;1.60;;;;;;;;;;5049869;28;20227;-78
2023/07/10 13:40:46;;;;;;;3.33;1.52;;;;;;;;;;5032977;28;20267;-79
2023/07/10 13:43:18;;;;;;;3.85;1.50;;;;;;;;;;5011901;28;20220;-79
2023/07/10 13:45:46;;;;;;;5.15;1.30;;;;;;;;;;5033712;28;20235;-79
2023/07/10 13:48:13;;;;;;;3.80;1.40;;;;;;;;;;5048095;28;20592;-78
2023/07/10 13:50:39;;;;;;;2.47;1.60;;;;;;;;;;5011204;28;20276;-78
2023/07/10 13:53:04;;;;;;;3.47;1.50;;;;;;;;;;5010412;28;20220;-79
2023/07/10 13:55:31;;;;;;;3.70;1.63;;;;;;;;;;5048256;28;20207;-79
2023/07/10 13:57:57;;;;;;;2.60;1.35;;;;;;;;;;5016762;28;20323;-78
2023/07/10 14:00:25;;;;;;;2.40;1.40;;;;;;;;;;5059937;28;20215;-79
2023/07/10 14:02:51;;;;;;;4.70;1.70;;;;;;;;;;5042132;28;20231;-78
2023/07/10 14:05:18;;;;;;;6.28;1.63;;;;;;;;;;5016484;28;20226;-79
2023/07/10 14:07:47;;;;;;;3.45;1.75;;;;;;;;;;5029039;28;20223;-79
2023/07/10 14:10:17;;;;;;;4.07;1.65;;;;;;;;;;5049470;28;20327;-77
2023/07/10 14:12:43;;;;;;;3.78;1.70;;;;;;;;;;5023781;28;20232;-81
2023/07/10 14:15:14;;;;;;;2.47;1.48;;;;;;;;;;5058496;28;20567;-77
2023/07/10 14:17:39;;;;;;;2.45;1.40;;;;;;;;;;5011649;28;20257;-78
2023/07/10 14:20:08;;;;;;;1.98;1.50;;;;;;;;;;5045040;28;20219;-77
2023/07/10 14:22:39;;;;;;;2.13;1.30;;;;;;;;;;5043560;28;20215;-78
2023/07/10 14:25:08;;;;;;;2.13;1.40;;;;;;;;;;5030754;28;20242;-79
2023/07/10 14:27:36;;;;;;;3.53;1.52;;;;;;;;;;5048430;28;20274;-79
2023/07/10 14:30:04;;;;;;;2.58;1.40;;;;;;;;;;5026797;28;20215;-79
2023/07/10 14:32:30;;;;;;;3.97;1.50;;;;;;;;;;5025425;28;20227;-79
2023/07/10 14:34:56;;;;;;;4.18;1.48;;;;;;;;;;5033901;28;20226;-79
2023/07/10 14:37:26;;;;;;;2.45;1.48;;;;;;;;;;5018705;28;20235;-77
2023/07/10 14:40:04;;;;;;;2.00;1.42;;;;;;;;;;5037342;28;20224;-78
2023/07/10 14:42:32;;;;;;;4.25;1.48;;;;;;;;;;5062593;28;20218;-79
2023/07/10 14:44:58;;;;;;;3.00;1.60;;;;;;;;;;5049132;28;20215;-79
2023/07/10 14:47:32;;;;;;;1.95;1.30;;;;;;;;;;5025989;28;20395;-79
2023/07/10 14:49:59;;;;;;;4.07;1.63;;;;;;;;;;4994338;28;20273;-78
2023/07/10 14:52:26;;;;;;;2.15;1.27;;;;;;;;;;5047436;28;20219;-79